createdAt,value
2018-12-05T04:29:00.094Z,103.85
2018-12-05T04:31:49.662Z,405.73
2018-12-05T04:34:38.407Z,206.13
2018-12-05T04:37:28.228Z,196.18
2018-12-05T04:40:17.807Z,195.50
2018-12-05T04:43:06.835Z,193.82
2018-12-05T04:45:55.636Z,171.57
2018-12-05T04:48:44.165Z,189.87
2018-12-05T04:51:32.755Z,184.48
2018-12-05T04:54:21.381Z,164.07
2018-12-05T04:57:09.783Z,172.98
2018-12-05T04:59:58.220Z,175.97
2018-12-05T05:02:46.749Z,159.57
2018-12-05T05:05:34.959Z,147.10
2018-12-05T05:08:23.520Z,147.70
2018-12-05T05:11:20.069Z,147.70
2018-12-05T05:14:13.286Z,139.00
2018-12-05T05:17:06.849Z,153.85
2018-12-05T05:20:03.100Z,147.17
2018-12-05T05:26:04.915Z,137.68
2018-12-05T05:28:59.597Z,141.35
2018-12-05T05:31:55.626Z,137.47
2018-12-05T05:34:50.270Z,131.63
2018-12-05T05:40:49.440Z,141.97
2018-12-05T05:43:44.146Z,138.12
2018-12-05T05:46:43.473Z,125.53
2018-12-05T05:49:38.048Z,121.77
2018-12-05T05:52:34.204Z,123.70
2018-12-05T05:55:35.969Z,124.20
2018-12-05T05:58:30.497Z,114.85
2018-12-05T06:01:25.956Z,114.47
2018-12-05T06:04:20.841Z,117.95
2018-12-05T06:07:15.773Z,106.40
2018-12-05T06:10:10.128Z,112.85
2018-12-05T06:13:03.970Z,116.95
2018-12-05T06:16:06.997Z,123.80
2018-12-05T06:18:59.657Z,120.00
2018-12-05T06:21:54.174Z,118.85
2018-12-05T06:24:50.735Z,113.95
2018-12-05T06:27:44.674Z,119.55
2018-12-05T06:30:43.060Z,114.62
2018-12-05T06:33:37.918Z,115.15
2018-12-05T06:36:38.929Z,122.07
2018-12-05T06:39:30.400Z,111.35
2018-12-05T06:42:22.009Z,112.62
2018-12-05T06:45:11.826Z,104.55
2018-12-05T06:48:02.450Z,115.97
2018-12-05T06:50:58.713Z,108.30
2018-12-05T06:53:54.938Z,111.37
2018-12-05T06:56:45.972Z,113.72
2018-12-05T06:59:36.378Z,108.75
2018-12-05T07:02:28.326Z,101.67
2018-12-05T07:05:17.203Z,100.15
2018-12-05T07:08:06.180Z,100.50
2018-12-05T07:10:58.038Z,98.20
2018-12-05T07:13:48.253Z,109.45
2018-12-05T07:16:37.669Z,104.75
2018-12-05T07:19:26.671Z,101.45
2018-12-05T07:22:16.106Z,99.55
2018-12-05T07:25:06.592Z,100.47
2018-12-05T07:27:55.623Z,94.58
2018-12-05T07:30:45.398Z,92.85
2018-12-05T07:33:39.791Z,107.60
2018-12-05T07:36:34.914Z,98.40
2018-12-05T07:39:30.043Z,95.95
2018-12-05T07:42:30.279Z,95.75
2018-12-05T07:45:31.944Z,94.70
2018-12-05T07:48:28.952Z,105.40
2018-12-05T07:51:25.180Z,98.00
2018-12-05T07:54:23.856Z,94.60
2018-12-05T07:57:23.285Z,101.72
2018-12-05T08:00:23.536Z,100.72
2018-12-05T08:03:24.127Z,97.78
2018-12-05T08:06:20.695Z,99.58
2018-12-05T08:09:14.794Z,95.67
2018-12-05T08:12:16.042Z,93.00
2018-12-05T08:15:09.801Z,96.65
2018-12-05T08:18:02.936Z,98.78
2018-12-05T08:20:54.619Z,98.67
2018-12-05T08:23:50.893Z,97.85
2018-12-05T08:26:43.412Z,96.55
2018-12-05T08:29:38.548Z,101.65
2018-12-05T08:32:34.542Z,99.10
2018-12-05T08:35:31.757Z,101.90
2018-12-05T08:38:30.826Z,95.70
2018-12-05T08:41:24.354Z,93.80
2018-12-05T08:44:12.888Z,93.03
2018-12-05T08:47:01.811Z,101.27
2018-12-05T08:49:51.000Z,97.05
2018-12-05T08:52:39.989Z,98.58
2018-12-05T08:55:28.448Z,99.52
2018-12-05T08:58:17.343Z,93.62
2018-12-05T09:01:05.968Z,95.07
2018-12-05T09:03:54.669Z,97.55
2018-12-05T09:06:49.680Z,97.78
2018-12-05T09:09:45.736Z,93.40
2018-12-05T09:12:41.042Z,93.33
2018-12-05T09:15:40.600Z,93.22
2018-12-05T09:18:32.906Z,92.82
2018-12-05T09:21:29.132Z,99.60
2018-12-05T09:24:27.391Z,97.45
2018-12-05T09:27:23.490Z,92.60
2018-12-05T09:30:16.791Z,98.60
2018-12-05T09:33:14.633Z,100.30
2018-12-05T09:36:14.710Z,104.55
2018-12-05T09:39:18.494Z,100.38
2018-12-05T09:42:13.431Z,102.75
2018-12-05T09:45:08.217Z,103.85
2018-12-05T09:48:02.353Z,98.05
2018-12-05T09:50:59.438Z,95.67
2018-12-05T09:53:58.704Z,97.55
2018-12-05T09:56:56.869Z,97.37
2018-12-05T09:59:52.423Z,97.22
2018-12-05T10:02:51.787Z,94.37
2018-12-05T10:05:46.874Z,89.75
2018-12-05T10:08:42.705Z,98.30
2018-12-05T10:11:37.606Z,93.25
2018-12-05T10:14:32.110Z,91.28
2018-12-05T10:17:26.943Z,87.65
2018-12-05T10:20:21.804Z,87.08
2018-12-05T10:23:18.589Z,83.92
2018-12-05T10:26:14.517Z,91.12
2018-12-05T10:29:16.419Z,90.22
2018-12-05T10:32:09.465Z,91.32
2018-12-05T10:35:05.050Z,92.15
2018-12-05T10:37:59.070Z,89.67
2018-12-05T10:40:53.432Z,91.85
2018-12-05T10:43:48.398Z,85.07
2018-12-05T10:46:45.231Z,95.50
2018-12-05T10:49:37.320Z,83.37
2018-12-05T10:52:30.110Z,88.20
2018-12-05T10:55:24.437Z,92.97
2018-12-05T10:58:19.512Z,85.95
2018-12-05T11:01:15.540Z,82.92
2018-12-05T11:04:11.467Z,88.17
2018-12-05T11:07:06.140Z,88.42
2018-12-05T11:10:07.508Z,86.15
2018-12-05T11:13:09.949Z,77.92
2018-12-05T11:16:18.049Z,79.65
2018-12-05T11:19:18.552Z,86.28
2018-12-05T11:22:16.037Z,80.53
2018-12-05T11:25:09.790Z,80.95
2018-12-05T11:27:59.489Z,82.12
2018-12-05T11:30:49.773Z,79.90
2018-12-05T11:33:38.303Z,84.72
2018-12-05T11:36:30.979Z,81.65
2018-12-05T11:39:20.073Z,81.63
2018-12-05T11:42:11.906Z,80.92
2018-12-05T11:45:05.388Z,80.72
2018-12-05T11:47:55.447Z,76.40
2018-12-05T11:50:43.960Z,80.40
2018-12-05T11:53:33.803Z,78.70
2018-12-05T11:56:25.155Z,80.83
2018-12-05T11:59:14.046Z,80.20
2018-12-05T12:05:15.866Z,75.65
2018-12-05T12:08:04.989Z,77.65
2018-12-05T12:10:52.956Z,84.30
2018-12-05T12:13:41.504Z,84.85
2018-12-05T12:16:29.941Z,83.62
2018-12-05T12:19:18.324Z,79.67
2018-12-05T12:22:06.883Z,87.05
2018-12-05T12:24:57.022Z,95.20
2018-12-05T12:27:45.170Z,91.22
2018-12-05T12:30:36.938Z,80.17
2018-12-05T12:33:25.204Z,88.25
2018-12-05T12:36:13.577Z,93.50
2018-12-05T12:39:01.877Z,89.03
2018-12-05T12:41:53.502Z,93.00
2018-12-05T12:44:41.917Z,87.72
2018-12-05T12:47:30.323Z,86.28
2018-12-05T12:50:18.838Z,84.58
2018-12-05T12:53:08.490Z,87.17
2018-12-05T12:55:57.647Z,89.00
2018-12-05T12:58:48.293Z,88.47
2018-12-05T13:01:36.571Z,84.80
2018-12-05T13:04:25.834Z,87.42
2018-12-05T13:07:14.015Z,90.12
2018-12-05T13:10:03.086Z,90.35
2018-12-05T13:12:54.194Z,88.10
2018-12-05T13:15:42.976Z,90.17
2018-12-05T13:18:31.998Z,89.28
2018-12-05T13:21:20.147Z,88.55
2018-12-05T13:24:08.807Z,84.45
2018-12-05T13:26:57.548Z,81.95
2018-12-05T13:29:47.675Z,91.25
2018-12-05T13:32:35.429Z,86.92
2018-12-05T13:35:24.990Z,89.92
2018-12-05T13:38:13.603Z,84.65
2018-12-05T13:41:02.669Z,82.60
2018-12-05T13:43:51.020Z,81.28
2018-12-05T13:46:38.672Z,82.53
2018-12-05T13:49:26.755Z,88.60
2018-12-05T13:52:16.847Z,91.95
2018-12-05T13:55:04.922Z,90.67
2018-12-05T13:57:53.905Z,101.58
2018-12-05T14:00:42.365Z,91.82
2018-12-05T14:03:32.478Z,89.03
2018-12-05T14:06:21.342Z,92.02
2018-12-05T14:09:10.472Z,98.30
2018-12-05T14:11:58.322Z,98.03
2018-12-05T14:14:46.129Z,89.50
2018-12-05T14:17:34.158Z,103.05
2018-12-05T14:20:22.255Z,97.88
2018-12-05T14:23:11.169Z,98.03
2018-12-05T14:25:59.921Z,101.75
2018-12-05T14:28:47.702Z,95.72
2018-12-05T14:31:36.039Z,94.17
2018-12-05T14:34:24.569Z,107.20
2018-12-05T14:37:12.724Z,105.70
2018-12-05T14:40:00.945Z,104.55
2018-12-05T14:42:50.746Z,105.27
2018-12-05T14:45:39.657Z,104.83
2018-12-05T14:48:27.919Z,100.25
2018-12-05T14:51:15.772Z,111.60
2018-12-05T14:54:04.447Z,105.65
2018-12-05T14:56:53.265Z,104.67
2018-12-05T14:59:41.843Z,101.33
2018-12-05T15:02:30.124Z,105.83
2018-12-05T15:05:17.773Z,105.87
2018-12-05T15:08:05.981Z,107.37
2018-12-05T15:10:54.418Z,108.67
2018-12-05T15:13:43.684Z,99.50
2018-12-05T15:16:32.101Z,112.52
2018-12-05T15:19:20.721Z,100.58
2018-12-05T15:22:09.314Z,110.00
2018-12-05T15:24:57.686Z,108.90
2018-12-05T15:27:46.937Z,108.72
2018-12-05T15:30:35.781Z,104.25
2018-12-05T15:33:24.597Z,112.60
2018-12-05T15:36:12.724Z,111.70
2018-12-05T15:39:01.555Z,108.97
2018-12-05T15:41:50.330Z,109.42
2018-12-05T15:44:38.244Z,114.57
2018-12-05T15:47:26.962Z,116.42
2018-12-05T15:50:18.079Z,109.03
2018-12-05T15:53:06.487Z,113.25
2018-12-05T15:55:56.973Z,108.80
2018-12-05T15:58:46.676Z,117.55
2018-12-05T16:01:35.401Z,111.08
2018-12-05T16:04:24.291Z,108.67
2018-12-05T16:07:12.469Z,110.17
2018-12-05T16:10:01.104Z,110.75
2018-12-05T16:12:49.488Z,106.87
2018-12-05T16:15:38.785Z,120.50
2018-12-05T16:18:27.627Z,118.13
2018-12-05T16:21:16.052Z,114.57
2018-12-05T16:24:04.737Z,119.37
2018-12-05T16:26:52.969Z,114.37
2018-12-05T16:29:40.880Z,118.30
2018-12-05T16:32:30.044Z,110.88
2018-12-05T16:35:18.247Z,119.00
2018-12-05T16:40:59.773Z,115.65
2018-12-05T16:43:49.630Z,107.85
2018-12-05T16:46:39.069Z,110.37
2018-12-05T16:49:28.414Z,112.20
2018-12-05T16:52:16.593Z,112.88
2018-12-05T16:55:05.370Z,111.95
2018-12-05T16:57:54.272Z,106.78
2018-12-05T17:00:43.056Z,123.07
2018-12-05T17:03:31.898Z,112.83
2018-12-05T17:06:21.358Z,117.10
2018-12-05T17:09:11.750Z,114.97
2018-12-05T17:11:59.709Z,108.78
2018-12-05T17:14:47.926Z,115.52
2018-12-05T17:17:36.792Z,116.10
2018-12-05T17:20:24.678Z,110.17
2018-12-05T17:23:12.801Z,110.60
2018-12-05T17:26:00.548Z,112.08
2018-12-05T17:28:48.155Z,111.47
2018-12-05T17:31:36.333Z,120.57
2018-12-05T17:34:24.585Z,111.55
2018-12-05T17:37:12.213Z,110.72
2018-12-05T17:40:00.112Z,111.12
2018-12-05T17:42:48.190Z,109.00
2018-12-05T17:45:36.147Z,108.35
2018-12-05T17:48:24.890Z,108.60
2018-12-05T17:51:14.363Z,112.00
2018-12-05T17:54:03.542Z,112.05
2018-12-05T17:56:51.932Z,113.75
2018-12-05T17:59:39.804Z,111.08
2018-12-05T18:02:27.924Z,115.72
2018-12-05T18:05:15.906Z,108.52
2018-12-05T18:08:03.585Z,113.03
2018-12-05T18:10:51.430Z,110.72
2018-12-05T18:13:39.163Z,107.87
2018-12-05T18:16:27.791Z,113.20
2018-12-05T18:19:16.494Z,124.00
2018-12-05T18:22:04.292Z,113.60
2018-12-05T18:24:52.567Z,114.35
2018-12-05T18:27:41.787Z,110.40
2018-12-05T18:30:29.368Z,111.65
2018-12-05T18:33:17.914Z,114.45
2018-12-05T18:36:06.334Z,109.30
2018-12-05T18:38:54.143Z,112.50
2018-12-05T18:41:42.647Z,113.00
2018-12-05T18:44:32.355Z,114.80
2018-12-05T18:47:20.268Z,119.57
2018-12-05T18:50:08.940Z,120.37
2018-12-05T18:52:57.205Z,119.13
2018-12-05T18:55:45.302Z,115.88
2018-12-05T18:58:32.946Z,118.55
2018-12-05T19:01:20.900Z,124.42
2018-12-05T19:04:09.878Z,123.87
2018-12-05T19:06:58.272Z,119.60
2018-12-05T19:09:45.964Z,119.90
2018-12-05T19:12:33.982Z,111.45
2018-12-05T19:15:22.152Z,120.55
2018-12-05T19:18:09.957Z,118.62
2018-12-05T19:20:58.513Z,118.45
2018-12-05T19:23:47.265Z,119.53
2018-12-05T19:26:35.071Z,120.65
2018-12-05T19:29:23.601Z,123.45
2018-12-05T19:32:12.180Z,124.82
2018-12-05T19:35:00.032Z,124.92
2018-12-05T19:37:47.591Z,118.87
2018-12-05T19:40:35.679Z,121.22
2018-12-05T19:43:23.877Z,124.90
2018-12-05T19:46:12.104Z,129.87
2018-12-05T19:48:59.842Z,123.82
2018-12-05T19:51:48.167Z,124.40
2018-12-05T19:54:35.683Z,124.27
2018-12-05T19:57:25.436Z,122.07
2018-12-05T20:00:15.306Z,128.50
2018-12-05T20:03:04.394Z,121.85
2018-12-05T20:05:52.717Z,126.50
2018-12-05T20:08:41.631Z,130.72
2018-12-05T20:11:30.072Z,129.72
2018-12-05T20:14:22.324Z,125.60
2018-12-05T20:17:10.955Z,135.65
2018-12-05T20:20:00.277Z,126.85
2018-12-05T20:22:47.907Z,131.20
2018-12-05T20:25:40.081Z,128.40
2018-12-05T20:28:27.621Z,131.30
2018-12-05T20:31:15.827Z,129.75
2018-12-05T20:34:03.949Z,124.22
2018-12-05T20:36:53.439Z,128.18
2018-12-05T20:40:30.654Z,136.22
2018-12-05T20:43:21.072Z,125.15
2018-12-05T20:46:09.968Z,134.00
2018-12-05T20:48:57.768Z,130.65
2018-12-05T20:51:45.676Z,131.75
2018-12-05T20:54:33.541Z,128.70
2018-12-05T20:57:21.882Z,137.55
2018-12-05T21:00:10.570Z,133.90
2018-12-05T21:02:59.072Z,139.40
2018-12-05T21:05:47.103Z,140.47
2018-12-05T21:08:35.772Z,147.40
2018-12-05T21:11:24.180Z,135.95
2018-12-05T21:14:12.108Z,140.82
2018-12-05T21:17:01.226Z,143.78
2018-12-05T21:19:50.481Z,146.53
2018-12-05T21:22:38.611Z,144.57
2018-12-05T21:25:27.329Z,146.18
2018-12-05T21:28:14.712Z,140.95
2018-12-05T21:31:02.366Z,150.97
2018-12-05T21:33:51.767Z,149.65
2018-12-05T21:36:39.374Z,145.12
2018-12-05T21:39:27.701Z,147.00
2018-12-05T21:42:15.644Z,142.65
2018-12-05T21:45:03.308Z,149.50
2018-12-05T21:47:51.457Z,149.62
2018-12-05T21:50:39.374Z,151.12
2018-12-05T21:53:27.533Z,159.90
2018-12-05T21:56:17.504Z,165.40
2018-12-05T21:59:06.065Z,149.90
2018-12-05T22:01:53.946Z,164.35
2018-12-05T22:04:41.575Z,142.82
2018-12-05T22:07:29.533Z,153.97
2018-12-05T22:10:17.879Z,150.05
2018-12-05T22:13:05.623Z,153.07
2018-12-05T22:15:53.917Z,157.97
2018-12-05T22:18:42.389Z,163.20
2018-12-05T22:21:30.857Z,157.27
2018-12-05T22:24:19.491Z,150.35
2018-12-05T22:27:07.331Z,161.77
2018-12-05T22:29:54.986Z,151.57
2018-12-05T22:32:43.168Z,156.80
2018-12-05T22:35:31.616Z,158.37
2018-12-05T22:38:19.111Z,153.35
2018-12-05T22:41:07.120Z,148.70
2018-12-05T22:43:55.333Z,155.32
2018-12-05T22:46:43.173Z,154.47
2018-12-05T22:49:31.057Z,152.68
2018-12-05T22:52:19.276Z,155.05
2018-12-05T22:55:07.953Z,158.37
2018-12-05T22:57:56.995Z,159.70
2018-12-05T23:00:47.445Z,154.82
2018-12-05T23:03:36.419Z,152.05
2018-12-05T23:06:24.513Z,158.78
2018-12-05T23:09:12.350Z,155.50
2018-12-05T23:12:00.183Z,158.75
2018-12-05T23:14:48.241Z,165.40
2018-12-05T23:17:36.218Z,158.22
2018-12-05T23:20:23.750Z,162.43
2018-12-05T23:23:11.869Z,161.88
2018-12-05T23:25:59.544Z,161.37
2018-12-05T23:28:47.548Z,169.37
2018-12-05T23:31:35.572Z,168.37
2018-12-05T23:34:24.887Z,159.57
2018-12-05T23:37:13.559Z,157.30
2018-12-05T23:40:01.980Z,161.88
2018-12-05T23:42:51.166Z,153.60
2018-12-05T23:45:39.590Z,161.03
2018-12-05T23:48:28.083Z,155.67
2018-12-05T23:51:16.167Z,154.15
2018-12-05T23:54:04.240Z,152.97
2018-12-05T23:56:52.086Z,156.10
2018-12-05T23:59:41.110Z,163.12
